FW1777 Weather Reports


Display with metric or nautical units.
time (UTC)temp
F
wind
direction
speed
MPH
gust
MPH
rain 1hr
in
rain 24hr
in
rain mn
in
humidity
%
barometer
mb
20190216052518 48 337 4.0 8.0 0.00 0.00 0.00 75 1011.1
20190216051519 49 0 3.0 8.0 0.00 0.00 0.00 75 1011.0
20190216050519 50 22 2.0 5.0 0.00 0.00 0.00 75 1011.1
20190216045519 51 0 3.0 8.0 0.00 0.00 0.00 74 1011.2
20190216044519 52 0 3.0 8.0 0.00 0.00 0.00 73 1011.1
20190216043520 53 0 3.0 6.0 0.00 0.00 0.00 74 1011.1
20190216042519 54 0 3.0 9.0 0.00 0.00 0.00 74 1010.9
20190216041519 54 337 3.0 5.0 0.00 0.00 0.00 73 1010.7
20190216040519 55 45 2.0 3.0 0.00 0.00 0.00 73 1010.4
20190216035520 56 67 4.0 9.0 0.00 0.00 0.00 73 1010.2
20190216034519 56 0 1.0 5.0 0.00 0.00 0.00 73 1010.3
20190216033520 57 22 3.0 10.0 0.00 0.00 0.00 72 1010.0
20190216032520 58 22 3.0 9.0 0.00 0.00 0.00 71 1009.8
20190216031519 59 0 2.0 5.0 0.00 0.00 0.00 70 1009.2
20190216030519 60 0 5.0 11.0 0.00 0.00 0.00 68 1009.2
20190216025520 61 0 5.0 13.0 0.00 0.00 0.00 68 1009.0
20190216024526 62 0 2.0 8.0 0.00 0.00 0.00 68 1008.7
20190216023519 63 22 6.0 12.0 0.00 0.00 0.00 67 1008.4
20190216022518 66 337 6.0 15.0 0.00 0.00 0.00 66 1008.3
20190216021520 69 22 4.0 15.0 0.00 0.00 0.00 63 1008.1
20190216020519 71 0 5.0 13.0 0.00 0.00 0.00 61 1007.6
20190216015518 71 337 4.0 9.0 0.00 0.00 0.00 60 1007.5
20190216014518 71 315 7.0 13.0 0.00 0.00 0.00 63 1007.2
20190216013518 69 0.0 0.0 0.00 0.00 0.00 64 1006.7
20190216012520 70 0.0 0.0 0.00 0.00 0.00 63 1006.6
20190216011519 70 270 1.0 2.0 0.00 0.00 0.00 62 1006.3
20190216010518 70 270 2.0 2.0 0.00 0.00 0.00 62 1006.1
20190216005519 70 270 1.0 2.0 0.00 0.00 0.00 62 1006.0
20190216004519 71 0.0 0.0 0.00 0.00 0.00 61 1006.2
20190216003519 71 270 1.0 2.0 0.00 0.00 0.00 59 1006.2
20190216002519 72 0.0 2.0 0.00 0.00 0.00 58 1006.1
20190216001518 73 0.0 0.0 0.00 0.00 0.00 55 1005.8
20190216000519 75 0.0 1.0 0.00 0.00 0.00 53 1005.9
20190215235519 76 0.0 1.0 0.00 0.00 0.00 50 1006.0
20190215234519 77 270 1.0 4.0 0.00 0.00 0.00 48 1006.2
20190215233519 78 247 1.0 3.0 0.00 0.00 0.00 48 1006.0
20190215232519 78 270 3.0 5.0 0.00 0.00 0.00 46 1006.0
20190215231519 79 270 2.0 6.0 0.00 0.00 0.00 45 1006.1
20190215230519 79 270 4.0 10.0 0.00 0.00 0.00 43 1005.8
20190215225518 80 292 6.0 11.0 0.00 0.00 0.00 43 1005.7
20190215224519 80 247 4.0 10.0 0.00 0.00 0.00 47 1005.5
20190215223519 80 225 7.0 13.0 0.00 0.00 0.00 46 1005.5
20190215223305 80 270 6.0 13.0 0.00 0.00 0.00 47 1005.4